Time;durP1;ratioP1;P1;durP2;ratioP2;P2;SDS_P1;SDS_P2;PMS_P1;PMS_P2;Temp;Humidity;BMP_temperature;BMP_pressure;BME280_temperature;BME280_humidity;BME280_pressure;Samples;Min_cycle;Max_cycle;Signal;HPM_P1;HPM_P2
2022/12/18 00:01:35;;;;;;;70.03;27.50;;;-4.80;1.00;;;;;;5034205;28;20928;-69
2022/12/18 00:04:03;;;;;;;63.30;24.30;;;-4.70;1.00;;;;;;5020974;28;20558;-69
2022/12/18 00:06:30;;;;;;;60.17;25.40;;;-4.70;1.00;;;;;;5027867;28;20436;-69
2022/12/18 00:08:57;;;;;;;63.33;24.60;;;-4.40;1.00;;;;;;5035073;28;20432;-70
2022/12/18 00:11:25;;;;;;;60.73;24.60;;;-4.30;1.00;;;;;;5027087;28;20433;-70
2022/12/18 00:13:52;;;;;;;69.83;26.53;;;-5.10;1.00;;;;;;5029760;28;20440;-69
2022/12/18 00:16:21;;;;;;;66.47;24.90;;;-5.00;1.00;;;;;;5032442;28;20604;-70
2022/12/18 00:18:51;;;;;;;70.27;26.70;;;-4.80;1.00;;;;;;5031779;28;20440;-70
2022/12/18 00:21:19;;;;;;;57.10;23.77;;;-4.80;1.00;;;;;;5027563;28;20432;-69
2022/12/18 00:23:46;;;;;;;69.53;24.60;;;-4.90;1.00;;;;;;5028202;28;20904;-68
2022/12/18 00:26:14;;;;;;;68.77;25.40;;;-4.50;1.00;;;;;;5027901;28;20436;-69
2022/12/18 00:28:40;;;;;;;62.30;25.90;;;-4.50;1.00;;;;;;5028547;28;20418;-68
2022/12/18 00:31:08;;;;;;;64.57;25.23;;;-4.40;1.00;;;;;;5033700;28;20440;-69
2022/12/18 00:33:35;;;;;;;58.30;24.90;;;-5.00;1.00;;;;;;5027140;28;20203;-69
2022/12/18 00:36:02;;;;;;;66.60;24.17;;;-4.70;1.00;;;;;;5030789;28;20440;-68
2022/12/18 00:38:28;;;;;;;61.97;22.57;;;-4.30;1.00;;;;;;5027999;28;20482;-69
2022/12/18 00:40:53;;;;;;;62.03;23.77;;;-4.80;1.00;;;;;;5030242;28;20832;-68
2022/12/18 00:43:18;;;;;;;56.43;25.30;;;-4.40;1.00;;;;;;5034360;28;20194;-69
2022/12/18 00:45:45;;;;;;;62.07;25.67;;;-4.80;1.00;;;;;;5031425;28;20292;-69
2022/12/18 00:48:10;;;;;;;60.10;24.23;;;-4.40;1.00;;;;;;5031837;28;20193;-70
2022/12/18 00:50:36;;;;;;;67.90;26.03;;;-4.40;1.00;;;;;;5033326;28;20498;-70
2022/12/18 00:53:01;;;;;;;65.37;23.93;;;-4.80;1.00;;;;;;5030489;28;20205;-69
2022/12/18 00:55:27;;;;;;;66.10;26.27;;;-4.80;1.00;;;;;;5032362;28;20189;-68
2022/12/18 00:57:52;;;;;;;55.43;24.80;;;-4.30;1.00;;;;;;5032915;28;20296;-70
2022/12/18 01:00:18;;;;;;;56.43;23.20;;;-4.70;1.00;;;;;;5031776;28;20272;-69
2022/12/18 01:02:44;;;;;;;69.33;23.77;;;-4.20;1.00;;;;;;5045805;28;20201;-70
2022/12/18 01:05:11;;;;;;;62.87;24.30;;;-4.30;1.00;;;;;;5031284;28;20993;-69
2022/12/18 01:07:37;;;;;;;65.33;24.17;;;-4.70;1.00;;;;;;5033394;28;20181;-69
2022/12/18 01:10:03;;;;;;;61.57;25.40;;;-4.30;1.00;;;;;;5031871;28;20463;-69
2022/12/18 01:12:29;;;;;;;63.30;25.70;;;-4.80;1.00;;;;;;5029814;28;20289;-70
2022/12/18 01:14:55;;;;;;;66.10;24.60;;;-4.80;1.00;;;;;;5030118;28;20512;-69
2022/12/18 01:17:21;;;;;;;70.83;25.53;;;-4.70;1.00;;;;;;5030102;28;20263;-73
2022/12/18 01:19:47;;;;;;;66.87;25.40;;;-4.40;1.00;;;;;;5035618;28;20186;-69
2022/12/18 01:22:12;;;;;;;66.60;25.37;;;-4.70;1.00;;;;;;5029465;28;21049;-70
2022/12/18 01:24:38;;;;;;;58.97;24.07;;;-4.90;1.00;;;;;;5028011;28;20243;-70
2022/12/18 01:27:03;;;;;;;62.77;25.97;;;-4.80;1.00;;;;;;5027192;28;20206;-73
2022/12/18 01:29:29;;;;;;;62.97;24.00;;;-4.30;1.00;;;;;;5030334;28;20217;-69
2022/12/18 01:31:56;;;;;;;67.10;24.80;;;-4.80;1.00;;;;;;5028655;28;20661;-69
2022/12/18 01:34:22;;;;;;;60.27;24.03;;;-4.80;1.00;;;;;;5028908;28;20201;-70
2022/12/18 01:36:48;;;;;;;59.37;24.50;;;-5.10;1.00;;;;;;5033140;28;21006;-69
2022/12/18 01:39:15;;;;;;;57.90;24.50;;;-4.50;1.00;;;;;;5027343;28;20535;-70
2022/12/18 01:44:53;;;;;;;59.57;23.50;;;-5.00;1.00;;;;;;5030034;28;20682;-69
2022/12/18 01:47:40;;;;;;;66.13;23.10;;;-5.00;1.00;;;;;;5023418;28;20535;-69
2022/12/18 01:50:08;;;;;;;61.70;23.20;;;-5.00;1.00;;;;;;5032888;28;20451;-69
2022/12/18 01:52:34;;;;;;;75.60;25.77;;;-4.50;1.00;;;;;;5029380;28;21203;-70
2022/12/18 01:55:02;;;;;;;63.30;24.10;;;-4.50;1.00;;;;;;5022886;28;20949;-69
2022/12/18 01:57:28;;;;;;;67.00;24.63;;;-4.80;1.00;;;;;;5028616;28;20551;-69
2022/12/18 01:59:58;;;;;;;61.00;23.53;;;-4.80;1.00;;;;;;5030135;28;20519;-71
2022/12/18 02:02:26;;;;;;;72.33;25.40;;;-4.80;1.00;;;;;;5032597;28;20460;-70
2022/12/18 02:04:51;;;;;;;61.67;23.23;;;-4.50;1.00;;;;;;5030903;28;20431;-70
2022/12/18 02:07:37;;;;;;;59.43;23.73;;;-4.90;1.00;;;;;;5030294;28;20954;-69
2022/12/18 02:10:10;;;;;;;56.20;25.50;;;-4.80;1.00;;;;;;5023296;28;20548;-69
2022/12/18 02:12:51;;;;;;;79.57;24.20;;;-4.80;1.00;;;;;;5035198;28;20464;-69
2022/12/18 02:15:43;;;;;;;60.23;23.53;;;-5.20;1.00;;;;;;5030735;28;20417;-70
2022/12/18 02:18:18;;;;;;;61.00;22.83;;;-4.40;1.00;;;;;;5029901;28;20495;-69
2022/12/18 02:20:49;;;;;;;61.73;22.00;;;-4.90;1.00;;;;;;5028328;28;20472;-69
2022/12/18 02:23:37;;;;;;;50.00;23.33;;;-4.50;1.00;;;;;;5028857;28;20460;-69
2022/12/18 02:26:34;;;;;;;57.53;21.83;;;-4.40;1.00;;;;;;5021182;28;21134;-69
2022/12/18 02:29:04;;;;;;;63.40;24.20;;;-4.80;1.00;;;;;;5025902;28;20799;-69
2022/12/18 02:31:39;;;;;;;58.97;22.70;;;-5.00;1.00;;;;;;5034958;28;20412;-69
2022/12/18 02:34:07;;;;;;;65.07;22.93;;;-4.40;1.00;;;;;;5029151;28;20539;-70
2022/12/18 02:36:34;;;;;;;53.70;21.37;;;-4.80;1.00;;;;;;5029811;28;21245;-69
2022/12/18 02:39:02;;;;;;;57.90;21.07;;;-5.20;1.00;;;;;;5029051;28;20973;-69
2022/12/18 02:41:29;;;;;;;57.20;21.60;;;-4.80;1.00;;;;;;5028328;28;20439;-69
2022/12/18 02:43:59;;;;;;;57.27;21.53;;;-4.40;1.00;;;;;;5030759;28;20493;-69
2022/12/18 02:46:30;;;;;;;52.77;20.67;;;-4.50;1.00;;;;;;5029497;28;20438;-71
2022/12/18 02:49:06;;;;;;;50.60;20.97;;;-4.80;1.00;;;;;;5033324;28;20463;-70
2022/12/18 02:51:45;;;;;;;55.03;22.03;;;-4.90;1.00;;;;;;5031388;28;20431;-69
2022/12/18 02:54:37;;;;;;;63.30;21.40;;;-4.90;1.00;;;;;;5023404;28;20416;-69
2022/12/18 02:57:30;;;;;;;50.00;21.20;;;-4.90;1.00;;;;;;5021826;28;20478;-69
2022/12/18 03:00:11;;;;;;;56.87;21.27;;;-4.80;1.00;;;;;;5038331;28;20539;-70
2022/12/18 03:02:43;;;;;;;52.73;20.67;;;-4.90;1.00;;;;;;5031012;28;20456;-71
2022/12/18 03:05:34;;;;;;;68.03;20.73;;;-4.90;1.00;;;;;;5037808;28;20905;-70
2022/12/18 03:08:07;;;;;;;68.50;21.30;;;-5.10;1.00;;;;;;5026580;28;20435;-69
2022/12/18 03:10:38;;;;;;;54.83;19.90;;;-5.20;1.00;;;;;;5029663;28;20507;-69
2022/12/18 03:13:08;;;;;;;54.67;20.77;;;-5.20;1.00;;;;;;5027662;28;21089;-72
2022/12/18 03:15:47;;;;;;;73.77;21.53;;;-5.30;1.00;;;;;;5029903;28;20847;-70
2022/12/18 03:18:33;;;;;;;58.60;20.77;;;-5.10;1.00;;;;;;5029305;28;20469;-69
2022/12/18 03:21:01;;;;;;;43.23;18.03;;;-5.40;1.00;;;;;;5029733;28;20454;-71
2022/12/18 03:23:32;;;;;;;49.93;19.27;;;-5.60;1.00;;;;;;5033992;28;20514;-70
2022/12/18 03:26:00;;;;;;;49.37;20.17;;;-5.40;1.00;;;;;;5029601;28;20697;-69
2022/12/18 03:28:31;;;;;;;57.37;21.03;;;-5.40;1.00;;;;;;5028532;28;20520;-71
2022/12/18 03:31:00;;;;;;;52.97;19.70;;;-5.70;1.00;;;;;;5037115;28;20409;-72
2022/12/18 03:33:29;;;;;;;47.00;19.50;;;-5.50;1.00;;;;;;5028153;28;20453;-73
2022/12/18 03:35:55;;;;;;;55.37;20.70;;;-5.10;1.00;;;;;;5029537;28;20413;-71
2022/12/18 03:38:21;;;;;;;61.07;20.90;;;-5.50;1.00;;;;;;5027310;28;20849;-69
2022/12/18 03:41:10;;;;;;;49.60;20.10;;;-5.10;1.00;;;;;;5028691;28;20174;-69
2022/12/18 03:43:42;;;;;;;68.53;19.77;;;-5.50;1.00;;;;;;5028205;28;20189;-69
2022/12/18 03:46:20;;;;;;;109.17;23.80;;;-5.10;1.00;;;;;;5029461;28;20397;-69
2022/12/18 03:48:51;;;;;;;111.47;20.07;;;-5.00;1.00;;;;;;5027272;28;20436;-69
2022/12/18 03:51:29;;;;;;;53.70;19.13;;;-5.00;1.00;;;;;;5027972;28;20440;-69
2022/12/18 03:54:01;;;;;;;85.70;21.33;;;-5.80;1.00;;;;;;5027755;28;20471;-68
2022/12/18 03:56:31;;;;;;;54.50;20.43;;;-5.60;1.00;;;;;;5028959;28;20647;-69
2022/12/18 03:58:59;;;;;;;62.73;20.07;;;-5.20;1.00;;;;;;5031328;28;20512;-68
2022/12/18 04:01:35;;;;;;;52.67;20.80;;;-5.30;1.00;;;;;;5028368;28;20986;-69
2022/12/18 04:04:03;;;;;;;73.80;22.43;;;-6.00;1.00;;;;;;5027636;28;20973;-69
2022/12/18 04:06:30;;;;;;;56.90;20.97;;;-5.70;1.00;;;;;;5029383;28;20627;-71
2022/12/18 04:08:57;;;;;;;52.10;20.03;;;-5.20;1.00;;;;;;5028350;28;20466;-69
2022/12/18 04:11:23;;;;;;;46.73;20.33;;;-5.60;1.00;;;;;;5026973;28;20501;-70
2022/12/18 04:13:48;;;;;;;53.03;20.33;;;-5.30;1.00;;;;;;5028864;28;20931;-69
2022/12/18 04:16:14;;;;;;;59.73;21.60;;;-6.10;1.00;;;;;;5027717;28;20243;-69
2022/12/18 04:18:39;;;;;;;48.80;19.77;;;-5.60;1.00;;;;;;5031755;28;20187;-69
2022/12/18 04:21:05;;;;;;;52.70;21.40;;;-5.50;1.00;;;;;;5028174;28;20234;-68
2022/12/18 04:23:31;;;;;;;70.10;21.53;;;-5.60;1.00;;;;;;5027533;28;20194;-70
2022/12/18 04:25:56;;;;;;;56.30;19.70;;;-5.40;1.00;;;;;;5028391;28;20181;-69
2022/12/18 04:28:22;;;;;;;54.30;20.07;;;-5.90;1.00;;;;;;5028116;28;20201;-70
2022/12/18 04:30:48;;;;;;;85.40;21.77;;;-6.20;1.00;;;;;;5028199;28;20176;-69
2022/12/18 04:33:14;;;;;;;87.13;21.33;;;-5.90;1.00;;;;;;5027446;28;20317;-70
2022/12/18 04:35:40;;;;;;;66.77;20.33;;;-5.70;1.00;;;;;;5028999;28;20575;-68
2022/12/18 04:38:08;;;;;;;73.00;20.30;;;-5.80;1.00;;;;;;5027954;28;20209;-69
2022/12/18 04:40:34;;;;;;;113.40;20.50;;;-5.50;1.00;;;;;;5027269;28;20202;-69
2022/12/18 04:42:59;;;;;;;90.33;20.27;;;-5.30;1.00;;;;;;5035404;28;20471;-71
2022/12/18 04:45:25;;;;;;;65.50;22.57;;;-5.80;1.00;;;;;;5023703;28;20443;-70
2022/12/18 04:47:50;;;;;;;69.40;19.67;;;-5.90;1.00;;;;;;5028104;28;20288;-68
2022/12/18 04:50:16;;;;;;;60.17;22.87;;;-6.40;1.00;;;;;;5031507;28;20193;-69
2022/12/18 04:52:41;;;;;;;71.20;20.43;;;-5.90;1.00;;;;;;5026369;28;20314;-69
2022/12/18 04:55:07;;;;;;;61.83;22.30;;;-6.20;1.00;;;;;;5027959;28;20680;-69
2022/12/18 04:57:32;;;;;;;60.27;21.10;;;-6.20;1.00;;;;;;5027831;28;20198;-69
2022/12/18 04:59:58;;;;;;;50.77;19.83;;;-6.50;1.00;;;;;;5029379;28;20165;-70
2022/12/18 05:02:24;;;;;;;60.57;21.40;;;-6.00;1.00;;;;;;5029438;28;20206;-68
2022/12/18 05:04:49;;;;;;;57.63;20.90;;;-6.60;1.00;;;;;;5028416;28;20220;-70
2022/12/18 05:07:14;;;;;;;53.37;20.97;;;-6.20;1.00;;;;;;5027832;28;20197;-69
2022/12/18 05:09:40;;;;;;;58.83;21.27;;;-6.20;1.00;;;;;;5030840;28;20166;-70
2022/12/18 05:12:06;;;;;;;50.20;20.70;;;-5.80;1.00;;;;;;5027872;28;20571;-69
2022/12/18 05:14:31;;;;;;;53.63;20.43;;;-6.00;1.00;;;;;;5028812;28;20170;-69
2022/12/18 05:16:57;;;;;;;54.60;20.87;;;-6.10;1.00;;;;;;5027046;28;20213;-70
2022/12/18 05:19:22;;;;;;;49.53;20.60;;;-6.00;1.00;;;;;;5031548;28;20179;-68
2022/12/18 05:21:48;;;;;;;56.50;22.00;;;-6.30;1.00;;;;;;5026703;28;20177;-69
2022/12/18 05:24:13;;;;;;;59.50;21.33;;;-6.20;1.00;;;;;;5029197;28;20173;-68
2022/12/18 05:26:39;;;;;;;52.77;20.83;;;-6.20;1.00;;;;;;5031456;28;20174;-69
2022/12/18 05:29:04;;;;;;;54.67;20.63;;;-6.20;1.00;;;;;;5032112;28;20185;-69
2022/12/18 05:31:30;;;;;;;50.87;20.50;;;-6.40;1.00;;;;;;5032169;28;20540;-69
2022/12/18 05:33:55;;;;;;;59.53;20.77;;;-6.50;1.00;;;;;;5031085;28;20298;-71
2022/12/18 05:36:21;;;;;;;60.60;23.17;;;-6.30;1.00;;;;;;5030068;28;20252;-69
2022/12/18 05:38:47;;;;;;;52.57;21.70;;;-6.50;1.00;;;;;;5030495;28;20197;-69
2022/12/18 05:41:12;;;;;;;53.77;21.93;;;-6.90;1.00;;;;;;5029340;28;20678;-69
2022/12/18 05:43:39;;;;;;;64.30;23.37;;;-6.50;1.00;;;;;;5033242;28;20198;-71
2022/12/18 05:46:22;;;;;;;63.37;20.13;;;-6.40;1.00;;;;;;5030217;28;20273;-69
2022/12/18 05:48:50;;;;;;;71.43;21.43;;;-6.90;1.00;;;;;;5034398;28;20444;-69
2022/12/18 05:51:17;;;;;;;68.13;23.30;;;-6.30;1.00;;;;;;5030282;28;20934;-68
2022/12/18 05:53:43;;;;;;;69.63;20.93;;;-6.50;1.00;;;;;;5030089;28;20448;-70
2022/12/18 05:56:15;;;;;;;88.23;21.40;;;-6.90;1.00;;;;;;5031130;28;20942;-70
2022/12/18 05:58:41;;;;;;;57.03;20.77;;;-6.10;1.00;;;;;;5030208;28;20288;-70
2022/12/18 06:01:18;;;;;;;75.53;23.57;;;-6.40;1.00;;;;;;5030506;28;20491;-69
2022/12/18 06:03:44;;;;;;;55.70;24.90;;;-6.70;1.00;;;;;;5030258;28;20201;-69
2022/12/18 06:06:28;;;;;;;60.23;22.80;;;-6.80;1.00;;;;;;5031462;28;20504;-70
2022/12/18 06:08:55;;;;;;;54.50;23.70;;;-6.90;1.00;;;;;;5028785;28;20196;-70
2022/12/18 06:11:23;;;;;;;48.20;20.67;;;-6.50;1.00;;;;;;5028869;28;20413;-70
2022/12/18 06:13:56;;;;;;;54.70;21.57;;;-6.30;1.00;;;;;;5031210;28;20922;-69
2022/12/18 06:16:22;;;;;;;56.60;21.37;;;-6.40;1.00;;;;;;5030213;28;20486;-70
2022/12/18 06:18:47;;;;;;;64.63;23.30;;;-6.30;1.00;;;;;;5031989;28;20448;-70
2022/12/18 06:21:13;;;;;;;51.90;22.50;;;-6.80;1.00;;;;;;5030160;28;20200;-71
2022/12/18 06:23:38;;;;;;;58.27;24.30;;;-6.50;1.00;;;;;;5029252;28;20600;-70
2022/12/18 06:26:07;;;;;;;55.17;22.80;;;-6.00;1.00;;;;;;5029420;28;20239;-69
2022/12/18 06:28:33;;;;;;;54.90;22.80;;;-6.40;1.00;;;;;;5031529;28;20193;-69
2022/12/18 06:30:58;;;;;;;47.40;23.80;;;-5.90;1.00;;;;;;5041860;28;20436;-72
2022/12/18 06:33:26;;;;;;;56.70;22.80;;;-5.80;1.00;;;;;;5030534;28;20190;-70
2022/12/18 06:35:52;;;;;;;51.67;21.10;;;-5.40;1.00;;;;;;5029436;28;20182;-69
2022/12/18 06:38:17;;;;;;;54.80;24.07;;;-5.70;1.00;;;;;;5029221;28;20475;-69
2022/12/18 06:40:43;;;;;;;48.50;22.37;;;-5.60;1.00;;;;;;5028695;28;20628;-71
2022/12/18 06:43:09;;;;;;;49.13;23.70;;;-5.90;1.00;;;;;;5030128;28;20189;-69
2022/12/18 06:45:34;;;;;;;52.37;23.17;;;-5.80;1.00;;;;;;5029299;28;20214;-69
2022/12/18 06:48:00;;;;;;;45.70;21.67;;;-5.10;1.00;;;;;;5029547;28;20182;-70
2022/12/18 06:50:25;;;;;;;47.03;20.47;;;-5.40;1.00;;;;;;5032506;28;20181;-72
2022/12/18 06:52:51;;;;;;;51.33;23.50;;;-5.50;1.00;;;;;;5035953;28;20212;-71
2022/12/18 06:55:16;;;;;;;52.03;23.23;;;-5.30;1.00;;;;;;5028961;28;20186;-69
2022/12/18 06:57:42;;;;;;;55.17;22.97;;;-5.40;1.00;;;;;;5030179;28;20197;-71
2022/12/18 07:00:08;;;;;;;50.33;22.23;;;-5.00;1.00;;;;;;5029108;28;20644;-70
2022/12/18 07:02:34;;;;;;;49.17;20.40;;;-5.30;1.00;;;;;;5029436;28;20197;-69
2022/12/18 07:05:00;;;;;;;43.10;21.40;;;-5.20;1.00;;;;;;5028569;28;20495;-70
2022/12/18 07:07:25;;;;;;;49.73;23.37;;;-5.30;1.00;;;;;;5028922;28;20252;-70
2022/12/18 07:09:51;;;;;;;47.17;22.33;;;-5.10;1.00;;;;;;5030326;28;20520;-72
2022/12/18 07:12:17;;;;;;;39.57;20.07;;;-5.20;1.00;;;;;;5029603;28;20193;-69
2022/12/18 07:14:43;;;;;;;44.80;21.10;;;-5.20;1.00;;;;;;5028917;28;20233;-70
2022/12/18 07:17:08;;;;;;;46.57;21.63;;;-5.60;1.00;;;;;;5029293;28;20271;-70
2022/12/18 07:19:34;;;;;;;51.73;22.60;;;-4.70;1.00;;;;;;5026838;28;20178;-70
2022/12/18 07:22:00;;;;;;;50.07;20.50;;;-5.10;1.00;;;;;;5024563;28;20280;-71
2022/12/18 07:24:25;;;;;;;42.97;21.00;;;-5.10;1.00;;;;;;5028634;28;20185;-73
2022/12/18 15:30:24;;;;;;;45.57;17.80;;;-2.20;1.00;;;;;;5062262;28;20586;-71
2022/12/18 15:32:51;;;;;;;45.03;18.23;;;-2.10;1.00;;;;;;5056879;28;20439;-71
2022/12/18 15:35:21;;;;;;;38.83;17.57;;;-2.10;1.00;;;;;;5060786;28;20484;-71
2022/12/18 15:37:47;;;;;;;49.17;18.60;;;-1.90;1.00;;;;;;5056907;28;20454;-70
2022/12/18 15:40:21;;;;;;;47.83;18.60;;;-1.70;1.00;;;;;;5050661;28;20462;-71
2022/12/18 15:45:33;;;;;;;40.53;18.20;;;-1.50;1.00;;;;;;5061107;28;20434;-72
2022/12/18 15:47:59;;;;;;;62.37;24.10;;;-1.40;1.00;;;;;;5058410;28;20811;-73
2022/12/18 15:50:24;;;;;;;58.40;24.00;;;-1.40;1.00;;;;;;5062758;28;20446;-72
2022/12/18 15:52:53;;;;;;;44.20;20.13;;;-1.30;1.00;;;;;;5059254;28;20506;-72
2022/12/18 15:58:07;;;;;;;58.53;23.37;;;-1.20;1.00;;;;;;5056206;28;20457;-70
2022/12/18 16:00:35;;;;;;;54.47;25.07;;;-1.10;1.00;;;;;;5049763;28;20427;-70
2022/12/18 16:03:00;;;;;;;46.60;21.70;;;-1.00;1.00;;;;;;5053189;28;20477;-71
2022/12/18 16:05:28;;;;;;;42.70;19.57;;;-1.00;1.00;;;;;;5056857;28;20427;-71
2022/12/18 16:07:54;;;;;;;53.53;23.40;;;-1.00;1.00;;;;;;5057815;28;20454;-70
2022/12/18 16:10:20;;;;;;;52.30;23.03;;;-0.20;1.00;;;;;;5051566;28;20651;-70
2022/12/18 16:12:46;;;;;;;54.70;21.30;;;-0.60;1.00;;;;;;5062509;28;20622;-70
2022/12/18 16:15:15;;;;;;;43.83;20.43;;;-0.60;1.00;;;;;;5064500;28;20447;-71
2022/12/18 16:17:42;;;;;;;44.70;20.50;;;-0.50;1.00;;;;;;5052439;28;20173;-69
2022/12/18 16:20:15;;;;;;;47.60;21.30;;;-0.70;1.00;;;;;;5050152;28;20440;-70
2022/12/18 16:22:46;;;;;;;43.40;18.73;;;-0.70;1.00;;;;;;5056533;28;20497;-70
2022/12/18 16:25:20;;;;;;;42.80;18.70;;;-0.70;1.00;;;;;;5056645;28;20438;-70
2022/12/18 16:27:45;;;;;;;50.73;22.40;;;-0.70;1.00;;;;;;5053717;28;20505;-69
2022/12/18 16:30:15;;;;;;;51.43;22.97;;;-0.70;1.00;;;;;;5072025;28;20465;-71
2022/12/18 16:32:41;;;;;;;51.50;21.93;;;-0.60;1.00;;;;;;5067340;28;20204;-73
2022/12/18 16:35:09;;;;;;;48.90;20.27;;;-0.60;1.00;;;;;;5062999;28;20795;-70
2022/12/18 16:37:35;;;;;;;45.33;19.57;;;-0.60;1.00;;;;;;5050903;28;20531;-70
2022/12/18 16:40:00;;;;;;;47.80;21.10;;;-0.50;1.00;;;;;;5052593;28;20464;-70
2022/12/18 16:42:26;;;;;;;46.87;21.43;;;-0.50;1.00;;;;;;5042388;28;20194;-70
2022/12/18 16:44:52;;;;;;;43.43;20.50;;;-0.50;1.00;;;;;;5037870;28;20731;-70
2022/12/18 16:47:18;;;;;;;53.33;19.80;;;-0.50;1.00;;;;;;5039886;28;20190;-70
2022/12/18 16:49:44;;;;;;;49.50;20.40;;;-0.50;1.00;;;;;;5045437;28;20201;-72
2022/12/18 16:52:10;;;;;;;42.17;19.37;;;-0.50;1.00;;;;;;5045089;28;20956;-72
2022/12/18 16:54:36;;;;;;;46.20;20.33;;;-0.40;1.00;;;;;;5045088;28;20432;-73
2022/12/18 16:57:04;;;;;;;42.00;18.87;;;-0.50;1.00;;;;;;5050682;28;20489;-69
2022/12/18 16:59:29;;;;;;;47.70;20.03;;;-0.50;1.00;;;;;;5047252;28;20276;-69
2022/12/18 17:01:56;;;;;;;45.80;19.23;;;-0.30;1.00;;;;;;5037076;28;20863;-70
2022/12/18 17:04:22;;;;;;;39.43;17.50;;;-0.40;1.00;;;;;;5041037;28;20200;-70
2022/12/18 17:06:53;;;;;;;37.77;17.40;;;-0.40;1.00;;;;;;5035449;28;20437;-69
2022/12/18 17:09:22;;;;;;;39.00;18.40;;;-0.40;1.00;;;;;;5051040;28;20534;-72
2022/12/18 17:11:48;;;;;;;41.63;19.67;;;-0.40;1.00;;;;;;5036969;28;20432;-70
2022/12/18 17:14:17;;;;;;;46.53;19.40;;;-0.50;1.00;;;;;;5045812;28;20442;-71
2022/12/18 17:16:42;;;;;;;49.37;20.87;;;-0.50;1.00;;;;;;5041361;28;20178;-69
2022/12/18 17:19:08;;;;;;;44.93;19.80;;;-0.50;1.00;;;;;;5033268;28;20467;-70
2022/12/18 17:21:34;;;;;;;42.10;19.80;;;-0.10;1.00;;;;;;5045600;28;20249;-71
2022/12/18 17:24:00;;;;;;;43.90;19.33;;;-0.10;1.00;;;;;;5055080;28;20293;-70
2022/12/18 17:26:26;;;;;;;41.13;19.83;;;-0.60;1.00;;;;;;5039418;28;20545;-72
2022/12/18 17:28:52;;;;;;;43.87;19.63;;;-0.50;1.00;;;;;;5041318;28;20548;-69
2022/12/18 17:31:19;;;;;;;42.70;19.60;;;-0.80;1.00;;;;;;5043382;28;20178;-70
2022/12/18 17:33:46;;;;;;;43.77;19.87;;;-0.60;1.00;;;;;;5046401;28;20270;-70
2022/12/18 17:36:12;;;;;;;46.97;20.60;;;-0.60;1.00;;;;;;5048666;28;20492;-69
2022/12/18 17:38:41;;;;;;;49.00;23.87;;;-0.60;1.00;;;;;;5047116;28;20450;-69
2022/12/18 17:41:08;;;;;;;46.47;21.90;;;-0.60;1.00;;;;;;5042435;28;20925;-70
2022/12/18 17:43:34;;;;;;;42.80;19.47;;;-0.60;1.00;;;;;;5044062;28;21062;-70
2022/12/18 17:46:05;;;;;;;42.73;19.53;;;-0.70;1.00;;;;;;5039796;28;20444;-69
2022/12/18 17:48:31;;;;;;;44.77;18.43;;;-0.70;1.00;;;;;;5045500;28;20496;-70
2022/12/18 17:51:01;;;;;;;46.80;20.20;;;-0.70;1.00;;;;;;5047989;28;20931;-73
2022/12/18 17:53:27;;;;;;;49.37;20.20;;;-0.80;1.00;;;;;;5045360;28;20443;-69
2022/12/18 17:55:58;;;;;;;42.70;20.07;;;-0.40;1.00;;;;;;5050603;28;20424;-72
2022/12/18 17:58:24;;;;;;;44.47;17.77;;;-0.50;1.00;;;;;;5048735;28;20681;-70
2022/12/18 18:00:50;;;;;;;37.97;18.73;;;-0.50;1.00;;;;;;5034917;28;20428;-70
2022/12/18 18:03:15;;;;;;;35.43;17.13;;;-0.60;1.00;;;;;;5035865;28;20296;-70
2022/12/18 18:05:41;;;;;;;35.30;16.90;;;-0.30;1.00;;;;;;5033339;28;21057;-69
2022/12/18 18:08:07;;;;;;;40.17;19.00;;;-0.50;1.00;;;;;;5037969;28;20493;-70
2022/12/18 18:10:37;;;;;;;44.97;18.93;;;-0.40;1.00;;;;;;5042769;28;20185;-74
2022/12/18 18:15:57;;;;;;;35.67;17.60;;;-0.40;1.00;;;;;;5048475;28;20530;-69
2022/12/18 18:18:23;;;;;;;39.63;17.60;;;-0.40;1.00;;;;;;5044854;28;20434;-73
2022/12/18 18:20:49;;;;;;;42.37;18.47;;;-0.10;1.00;;;;;;5048507;28;20408;-70
2022/12/18 18:23:14;;;;;;;38.33;18.20;;;0.00;1.00;;;;;;5042021;28;20354;-70
2022/12/18 18:25:40;;;;;;;40.80;17.90;;;-0.30;1.00;;;;;;5035383;28;20696;-68
2022/12/18 18:28:05;;;;;;;39.87;19.20;;;-0.30;1.00;;;;;;5033125;28;20181;-73
2022/12/18 18:30:31;;;;;;;38.80;17.67;;;0.00;1.00;;;;;;5037955;28;20236;-71
2022/12/18 18:32:56;;;;;;;40.53;18.27;;;0.00;1.00;;;;;;5042826;28;20250;-71
2022/12/18 18:35:22;;;;;;;38.50;17.30;;;-0.40;1.00;;;;;;5058733;28;20187;-70
2022/12/18 18:37:48;;;;;;;43.23;18.20;;;-0.50;1.00;;;;;;5038490;28;20185;-73
2022/12/18 18:40:13;;;;;;;37.33;17.13;;;-0.30;1.00;;;;;;5044149;28;20486;-70
2022/12/18 18:42:39;;;;;;;38.83;18.53;;;-0.50;1.00;;;;;;5043448;28;20223;-71
2022/12/18 18:45:05;;;;;;;38.20;18.37;;;-0.20;1.00;;;;;;5036452;28;20322;-71
2022/12/18 18:47:31;;;;;;;37.63;17.67;;;-0.50;1.00;;;;;;5042963;28;20227;-72
2022/12/18 18:49:56;;;;;;;38.13;18.37;;;-0.30;1.00;;;;;;5038951;28;20491;-71
2022/12/18 18:52:22;;;;;;;40.53;18.77;;;-0.40;1.00;;;;;;5045105;28;20311;-70
2022/12/18 18:54:50;;;;;;;42.60;18.93;;;-0.40;1.00;;;;;;5057571;28;20180;-70
2022/12/18 18:57:16;;;;;;;43.67;18.70;;;-0.40;1.00;;;;;;5047703;28;20227;-70
2022/12/18 18:59:41;;;;;;;42.17;19.13;;;-0.40;1.00;;;;;;5043757;28;20423;-73
2022/12/18 19:02:14;;;;;;;45.17;19.37;;;-0.40;1.00;;;;;;5040029;28;20197;-70
2022/12/18 19:04:40;;;;;;;38.00;17.63;;;-0.30;1.00;;;;;;5039060;28;20189;-70
2022/12/18 19:07:06;;;;;;;38.53;18.43;;;-0.30;1.00;;;;;;5041275;28;20926;-70
2022/12/18 19:09:31;;;;;;;43.90;18.80;;;-0.30;1.00;;;;;;5035044;28;20197;-70
2022/12/18 19:14:42;;;;;;;40.53;17.73;;;-0.30;1.00;;;;;;5046805;28;20184;-71
2022/12/18 19:17:08;;;;;;;36.60;17.20;;;-0.30;1.00;;;;;;5047112;28;20408;-72
2022/12/18 19:19:34;;;;;;;37.47;18.07;;;-0.30;1.00;;;;;;5035390;28;20927;-70
2022/12/18 19:21:59;;;;;;;42.60;18.60;;;-0.30;1.00;;;;;;5036830;28;20445;-71
2022/12/18 19:24:25;;;;;;;36.77;18.17;;;-0.30;1.00;;;;;;5043576;28;20199;-70
2022/12/18 19:26:51;;;;;;;43.80;19.20;;;-0.30;1.00;;;;;;5041272;28;20181;-69
2022/12/18 19:29:17;;;;;;;40.93;18.90;;;-0.30;1.00;;;;;;5046626;28;20869;-70
2022/12/18 19:31:43;;;;;;;34.97;16.80;;;-0.20;1.00;;;;;;5037069;28;20213;-70
2022/12/18 19:34:10;;;;;;;37.73;17.37;;;-0.20;1.00;;;;;;5041063;28;20198;-70
2022/12/18 19:36:38;;;;;;;36.13;16.87;;;-0.10;1.00;;;;;;5030035;28;20437;-71
2022/12/18 19:39:10;;;;;;;34.77;16.43;;;-0.20;1.00;;;;;;5048273;28;20435;-71
2022/12/18 19:41:35;;;;;;;38.73;17.93;;;-0.10;1.00;;;;;;5032810;28;20443;-70
2022/12/18 19:44:01;;;;;;;38.27;18.80;;;-0.10;1.00;;;;;;5047008;28;20436;-68
2022/12/18 19:46:26;;;;;;;38.63;15.50;;;0.30;1.00;;;;;;5043206;28;20568;-70
2022/12/18 19:48:52;;;;;;;40.83;17.63;;;-0.10;1.00;;;;;;5045077;28;20201;-71
2022/12/18 19:51:23;;;;;;;37.63;17.40;;;-0.10;1.00;;;;;;5039840;28;20195;-70
2022/12/18 19:53:50;;;;;;;38.10;17.43;;;-0.20;1.00;;;;;;5042538;28;20252;-70
2022/12/18 19:56:17;;;;;;;39.80;18.13;;;-0.20;1.00;;;;;;5044814;28;20436;-70
2022/12/18 19:58:43;;;;;;;38.20;17.67;;;-0.10;1.00;;;;;;5035658;28;20456;-70
2022/12/18 20:01:10;;;;;;;37.50;17.57;;;-0.10;1.00;;;;;;5045172;28;20579;-71
2022/12/18 20:03:35;;;;;;;35.80;17.40;;;-0.10;1.00;;;;;;5051080;28;20280;-70
2022/12/18 20:06:13;;;;;;;38.97;18.40;;;-0.10;1.00;;;;;;5042499;28;20681;-71
2022/12/18 20:08:39;;;;;;;39.90;17.90;;;-0.10;1.00;;;;;;5039675;28;20703;-70
2022/12/18 20:11:05;;;;;;;37.50;16.90;;;0.00;1.00;;;;;;5039698;28;20435;-71
2022/12/18 20:13:31;;;;;;;35.57;16.77;;;-0.10;1.00;;;;;;5047763;28;20611;-73
2022/12/18 20:15:57;;;;;;;36.97;16.13;;;-0.10;1.00;;;;;;5043530;28;20456;-70
2022/12/18 20:18:23;;;;;;;35.57;17.10;;;-0.10;1.00;;;;;;5038265;28;20178;-70
2022/12/18 20:20:48;;;;;;;40.60;18.20;;;-0.10;1.00;;;;;;5041764;28;20432;-71
2022/12/18 20:23:14;;;;;;;36.23;17.10;;;0.30;1.00;;;;;;5040972;28;20624;-73
2022/12/18 20:25:39;;;;;;;34.70;18.13;;;-0.10;1.00;;;;;;5047670;28;20192;-71
2022/12/18 20:28:05;;;;;;;41.10;17.90;;;0.30;1.00;;;;;;5042071;28;20584;-71
2022/12/18 20:30:31;;;;;;;36.53;18.00;;;-0.10;1.00;;;;;;5048357;28;20256;-73
2022/12/18 20:32:56;;;;;;;37.80;18.63;;;0.00;1.00;;;;;;5035749;28;20197;-70
2022/12/18 20:35:22;;;;;;;39.60;17.83;;;0.00;1.00;;;;;;5046368;28;20181;-71
2022/12/18 20:37:47;;;;;;;41.13;18.43;;;0.00;1.00;;;;;;5045143;28;20184;-71
2022/12/18 20:40:13;;;;;;;40.43;19.10;;;0.00;1.00;;;;;;5044277;28;20197;-70
2022/12/18 20:42:38;;;;;;;37.60;17.80;;;0.00;1.00;;;;;;5047066;28;20193;-71
2022/12/18 20:45:05;;;;;;;39.27;18.07;;;0.00;1.00;;;;;;5049072;28;20718;-72
2022/12/18 20:47:30;;;;;;;37.63;17.47;;;-0.10;1.00;;;;;;5046857;28;20193;-72
2022/12/18 20:49:56;;;;;;;37.70;17.70;;;0.10;1.00;;;;;;5041791;28;20517;-71
2022/12/18 20:52:22;;;;;;;36.00;16.87;;;-0.10;1.00;;;;;;5046522;28;20292;-70
2022/12/18 20:54:47;;;;;;;39.10;17.50;;;-0.10;1.00;;;;;;5047663;28;20169;-72
2022/12/18 20:57:13;;;;;;;38.37;18.17;;;-0.10;1.00;;;;;;5053726;28;20825;-69
2022/12/18 20:59:38;;;;;;;41.73;20.27;;;-0.20;1.00;;;;;;5039287;28;20182;-71